createdAt,value
2022-08-05T00:01:56.518Z,100919.25
2022-08-05T00:06:03.069Z,100922.78
2022-08-05T00:08:35.579Z,100917.34
2022-08-05T00:11:48.489Z,100918.28
2022-08-05T00:14:57.613Z,100914.97
2022-08-05T00:17:59.720Z,100915.06
2022-08-05T00:21:06.491Z,100917.78
2022-08-05T00:24:15.968Z,100915.28
2022-08-05T00:27:21.900Z,100914.44
2022-08-05T00:30:32.147Z,100914.63
2022-08-05T00:34:56.351Z,100906.53
2022-08-05T00:37:10.691Z,100912.78
2022-08-05T00:40:14.789Z,100909.38
2022-08-05T00:43:20.596Z,100913.97
2022-08-05T00:46:42.501Z,100910.50
2022-08-05T00:49:51.784Z,100907.97
2022-08-05T00:52:55.009Z,100919.88
2022-08-05T00:55:57.786Z,100915.56
2022-08-05T00:59:00.406Z,100903.31
2022-08-05T01:02:02.855Z,100916.53
2022-08-05T01:05:10.220Z,100906.94
2022-08-05T01:08:39.130Z,100905.13
2022-08-05T01:11:37.346Z,100899.81
2022-08-05T01:15:35.397Z,100900.78
2022-08-05T01:18:42.621Z,100898.28
2022-08-05T01:22:15.642Z,100894.84
2022-08-05T01:25:40.811Z,100888.03
2022-08-05T01:29:04.364Z,100902.38
2022-08-05T01:32:12.492Z,100892.69
2022-08-05T01:35:51.697Z,100882.16
2022-08-05T01:38:50.062Z,100878.53
2022-08-05T01:41:54.687Z,100894.75
2022-08-05T01:44:59.899Z,100885.94
2022-08-05T01:48:10.298Z,100893.22
2022-08-05T01:51:14.793Z,100887.03
2022-08-05T01:54:19.122Z,100885.31
2022-08-05T01:58:12.154Z,100875.56
2022-08-05T02:01:00.096Z,100880.13
2022-08-05T02:04:03.626Z,100880.22
2022-08-05T02:07:06.223Z,100885.66
2022-08-05T02:10:10.344Z,100884.13
2022-08-05T02:13:36.381Z,100882.31
2022-08-05T02:16:52.853Z,100870.75
2022-08-05T02:19:59.482Z,100873.66
2022-08-05T02:23:08.855Z,100872.09
2022-08-05T02:26:13.730Z,100865.78
2022-08-05T02:29:25.990Z,100856.75
2022-08-05T02:32:48.369Z,100862.16
2022-08-05T02:35:56.300Z,100857.13
2022-08-05T02:39:03.974Z,100864.28
2022-08-05T02:42:11.585Z,100852.94
2022-08-05T02:45:52.623Z,100856.44
2022-08-05T02:48:52.595Z,100855.69
2022-08-05T02:52:03.664Z,100854.13
2022-08-05T02:55:07.286Z,100855.03
2022-08-05T02:58:15.634Z,100846.06
2022-08-05T03:01:20.833Z,100851.56
2022-08-05T03:04:23.899Z,100849.97
2022-08-05T03:07:59.359Z,100850.78
2022-08-05T03:11:01.057Z,100850.97
2022-08-05T03:14:13.474Z,100843.72
2022-08-05T03:17:15.800Z,100850.03
2022-08-05T03:20:18.110Z,100843.66
2022-08-05T03:23:24.200Z,100847.28
2022-08-05T03:26:31.420Z,100843.97
2022-08-05T03:29:45.378Z,100849.22
2022-08-05T03:32:57.450Z,100843.53
2022-08-05T03:35:59.980Z,100843.34
2022-08-05T03:39:12.966Z,100848.53
2022-08-05T03:42:22.783Z,100845.09
2022-08-05T03:45:29.709Z,100848.66
2022-08-05T03:48:51.797Z,100843.09
2022-08-05T03:52:37.043Z,100838.72
2022-08-05T03:56:06.228Z,100836.78
2022-08-05T03:58:51.273Z,100841.34
2022-08-05T04:01:59.036Z,100838.47
2022-08-05T04:05:02.869Z,100836.91
2022-08-05T04:08:30.396Z,100833.06
2022-08-05T04:11:47.579Z,100842.97
2022-08-05T04:14:53.627Z,100846.41
2022-08-05T04:18:03.846Z,100842.72
2022-08-05T04:21:11.123Z,100843.44
2022-08-05T04:24:18.706Z,100845.28
2022-08-05T04:27:42.026Z,100843.66
2022-08-05T04:30:44.739Z,100838.34
2022-08-05T04:34:19.009Z,100835.41
2022-08-05T04:37:09.843Z,100842.44
2022-08-05T04:40:12.944Z,100830.84
2022-08-05T04:43:22.039Z,100835.28
2022-08-05T04:46:28.193Z,100837.63
2022-08-05T04:49:39.004Z,100837.63
2022-08-05T04:52:53.039Z,100826.78
2022-08-05T04:56:32.851Z,100834.94
2022-08-05T04:59:22.845Z,100818.44
2022-08-05T05:02:41.808Z,100827.16
2022-08-05T05:06:36.644Z,100825.94
2022-08-05T05:09:07.931Z,100835.59
2022-08-05T05:12:09.939Z,100835.97
2022-08-05T05:15:13.899Z,100840.22
2022-08-05T05:18:28.362Z,100841.38
2022-08-05T05:21:33.725Z,100830.19
2022-08-05T05:24:57.732Z,100837.06
2022-08-05T05:27:59.809Z,100841.81
2022-08-05T05:31:01.947Z,100844.66
2022-08-05T05:34:08.253Z,100846.41
2022-08-05T05:37:12.952Z,100849.50
2022-08-05T05:40:17.091Z,100850.56
2022-08-05T05:43:54.473Z,100859.44
2022-08-05T05:46:45.363Z,100851.44
2022-08-05T05:49:52.604Z,100845.75
2022-08-05T05:53:03.598Z,100847.94
2022-08-05T05:56:31.325Z,100843.66
2022-08-05T05:59:40.379Z,100846.63
2022-08-05T06:02:42.853Z,100833.63
2022-08-05T06:05:45.127Z,100826.44
2022-08-05T06:08:56.673Z,100827.00
2022-08-05T06:12:02.058Z,100819.91
2022-08-05T06:15:07.989Z,100819.69
2022-08-05T06:18:10.461Z,100815.28
2022-08-05T06:21:18.569Z,100816.16
2022-08-05T06:24:22.525Z,100819.47
2022-08-05T06:28:12.623Z,100821.53
2022-08-05T06:30:51.140Z,100812.59
2022-08-05T06:34:06.804Z,100809.72
2022-08-05T06:37:13.509Z,100812.03
2022-08-05T06:40:18.392Z,100809.84
2022-08-05T06:43:58.727Z,100805.81
2022-08-05T06:46:46.229Z,100784.06
2022-08-05T06:50:01.128Z,100794.69
2022-08-05T06:53:19.600Z,100800.00
2022-08-05T06:56:29.010Z,100798.84
2022-08-05T06:59:38.472Z,100802.22
2022-08-05T07:02:44.908Z,100801.06
2022-08-05T07:05:47.090Z,100797.09
2022-08-05T07:08:53.190Z,100794.59
2022-08-05T07:12:00.211Z,100801.72
2022-08-05T07:15:34.647Z,100800.53
2022-08-05T07:18:47.741Z,100794.75
2022-08-05T07:22:00.734Z,100793.34
2022-08-05T07:25:21.935Z,100798.94
2022-08-05T07:28:27.017Z,100791.94
2022-08-05T07:31:53.923Z,100791.19
2022-08-05T07:34:57.991Z,100791.78
2022-08-05T07:38:00.962Z,100796.38
2022-08-05T07:42:07.355Z,100793.91
2022-08-05T07:44:38.793Z,100802.94
2022-08-05T07:47:42.747Z,100803.53
2022-08-05T07:50:45.869Z,100794.81
2022-08-05T07:53:55.867Z,100790.06
2022-08-05T07:57:14.751Z,100787.63
2022-08-05T08:00:21.826Z,100791.94
2022-08-05T08:03:26.106Z,100782.56
2022-08-05T08:06:47.348Z,100778.78
2022-08-05T08:09:54.913Z,100785.50
2022-08-05T08:12:58.543Z,100785.78
2022-08-05T08:16:35.215Z,100776.84
2022-08-05T08:20:22.694Z,100787.91
2022-08-05T08:22:55.643Z,100787.91
2022-08-05T08:25:59.878Z,100788.03
2022-08-05T08:29:29.526Z,100785.56
2022-08-05T08:32:28.393Z,100785.16
2022-08-05T08:35:35.047Z,100786.31
2022-08-05T08:38:43.803Z,100778.28
2022-08-05T08:41:59.790Z,100787.41
2022-08-05T08:45:23.123Z,100783.38
2022-08-05T08:48:42.986Z,100783.53
2022-08-05T08:52:05.887Z,100778.34
2022-08-05T08:55:19.321Z,100778.50
2022-08-05T08:58:43.683Z,100773.31
2022-08-05T09:01:57.445Z,100774.97
2022-08-05T09:05:17.775Z,100780.03
2022-08-05T09:08:20.712Z,100778.28
2022-08-05T09:11:51.549Z,100775.34
2022-08-05T09:14:59.493Z,100759.25
2022-08-05T09:18:10.438Z,100759.00
2022-08-05T09:21:20.642Z,100761.78
2022-08-05T09:24:38.616Z,100768.94
2022-08-05T09:28:04.931Z,100759.31
2022-08-05T09:31:22.120Z,100751.19
2022-08-05T09:34:51.528Z,100748.81
2022-08-05T09:38:12.221Z,100754.72
2022-08-05T09:41:17.701Z,100753.41
2022-08-05T09:44:56.641Z,100745.44
2022-08-05T09:48:00.094Z,100748.19
2022-08-05T09:51:14.824Z,100745.63
2022-08-05T09:54:31.418Z,100735.72
2022-08-05T09:57:43.209Z,100735.41
2022-08-05T10:00:54.228Z,100723.34
2022-08-05T10:04:04.103Z,100724.94
2022-08-05T10:07:20.202Z,100723.59
2022-08-05T10:10:48.316Z,100718.16
2022-08-05T10:13:57.974Z,100713.53
2022-08-05T10:17:39.275Z,100706.88
2022-08-05T10:20:51.134Z,100709.13
2022-08-05T10:24:00.097Z,100705.47
2022-08-05T10:27:03.308Z,100699.75
2022-08-05T10:31:20.588Z,100704.50
2022-08-05T10:33:37.394Z,100699.69
2022-08-05T10:36:42.705Z,100699.59
2022-08-05T10:40:03.749Z,100696.75
2022-08-05T10:43:46.473Z,100693.75
2022-08-05T10:46:56.673Z,100690.53
2022-08-05T10:50:31.629Z,100687.25
2022-08-05T10:53:56.034Z,100685.06
2022-08-05T10:57:01.254Z,100681.66
2022-08-05T11:00:20.564Z,100668.88
2022-08-05T11:03:27.133Z,100669.13
2022-08-05T11:06:31.282Z,100659.81
2022-08-05T11:09:48.023Z,100666.38
2022-08-05T11:12:55.040Z,100659.63
2022-08-05T11:16:33.618Z,100667.03
2022-08-05T11:20:16.927Z,100661.19
2022-08-05T11:24:04.472Z,100658.91
2022-08-05T11:27:50.824Z,100660.88
2022-08-05T11:30:58.335Z,100650.25
2022-08-05T11:34:03.703Z,100644.78
2022-08-05T11:38:28.001Z,100649.66
2022-08-05T11:41:34.444Z,100647.69
2022-08-05T11:44:52.844Z,100652.47
2022-08-05T11:47:54.741Z,100644.78
2022-08-05T11:50:58.694Z,100638.25
2022-08-05T11:54:03.535Z,100647.94
2022-08-05T11:57:08.643Z,100639.31
2022-08-05T12:00:28.904Z,100640.56
2022-08-05T12:03:56.079Z,100635.41
2022-08-05T12:07:01.842Z,100640.72
2022-08-05T12:10:09.218Z,100632.59
2022-08-05T12:13:15.588Z,100623.88
2022-08-05T12:16:20.319Z,100624.09
2022-08-05T12:20:25.264Z,100621.19
2022-08-05T12:23:11.612Z,100618.34
2022-08-05T12:26:20.876Z,100616.16
2022-08-05T12:29:27.510Z,100611.50
2022-08-05T12:32:50.368Z,100603.66
2022-08-05T12:35:53.413Z,100604.06
2022-08-05T12:38:58.405Z,100610.53
2022-08-05T12:42:01.456Z,100603.41
2022-08-05T12:45:09.744Z,100605.13
2022-08-05T12:48:17.490Z,100596.84
2022-08-05T12:52:10.329Z,100596.75
2022-08-05T12:54:56.039Z,100597.63
2022-08-05T12:58:49.407Z,100601.03
2022-08-05T13:02:03.862Z,100593.25
2022-08-05T13:04:52.468Z,100590.34
2022-08-05T13:07:59.896Z,100589.75
2022-08-05T13:11:04.269Z,100581.81
2022-08-05T13:14:36.632Z,100589.81
2022-08-05T13:17:41.193Z,100584.09
2022-08-05T13:20:44.824Z,100574.56
2022-08-05T13:23:50.918Z,100574.94
2022-08-05T13:26:54.805Z,100580.66
2022-08-05T13:29:59.621Z,100575.88
2022-08-05T13:34:22.321Z,100570.78
2022-08-05T13:36:46.882Z,100567.47
2022-08-05T13:40:15.973Z,100558.09
2022-08-05T13:43:21.744Z,100542.28
2022-08-05T13:46:44.002Z,100551.41
2022-08-05T13:49:48.707Z,100557.00
2022-08-05T13:52:51.545Z,100544.69
2022-08-05T13:56:00.207Z,100543.50
2022-08-05T13:59:06.302Z,100544.44
2022-08-05T14:02:26.595Z,100530.22
2022-08-05T14:06:04.619Z,100539.84
2022-08-05T14:08:54.544Z,100533.84
2022-08-05T14:12:03.920Z,100534.50
2022-08-05T14:16:08.115Z,100536.06
2022-08-05T14:18:41.690Z,100538.13
2022-08-05T14:22:09.005Z,100523.13
2022-08-05T14:25:21.814Z,100531.66
2022-08-05T14:28:27.066Z,100522.09
2022-08-05T14:31:54.565Z,100531.19
2022-08-05T14:34:53.147Z,100520.63
2022-08-05T14:37:57.303Z,100524.81
2022-08-05T14:41:07.252Z,100523.44
2022-08-05T14:44:20.206Z,100521.00
2022-08-05T14:48:03.137Z,100519.88
2022-08-05T14:50:45.781Z,100528.09
2022-08-05T14:54:06.912Z,100516.03
2022-08-05T14:57:14.060Z,100521.72
2022-08-05T15:00:16.611Z,100522.81
2022-08-05T15:03:22.965Z,100521.16
2022-08-05T15:06:28.009Z,100518.41
2022-08-05T15:09:51.531Z,100518.16
2022-08-05T15:13:00.992Z,100519.81
2022-08-05T15:16:06.402Z,100515.34
2022-08-05T15:19:23.176Z,100519.69
2022-08-05T15:22:28.124Z,100502.81
2022-08-05T15:25:50.888Z,100502.81
2022-08-05T15:28:53.289Z,100491.44
2022-08-05T15:31:56.765Z,100487.03
2022-08-05T15:35:04.062Z,100484.75
2022-08-05T15:38:34.622Z,100499.72
2022-08-05T15:41:57.241Z,100496.28
2022-08-05T15:44:59.086Z,100482.06
2022-08-05T15:48:05.022Z,100485.69
2022-08-05T15:51:09.366Z,100481.44
2022-08-05T15:54:14.956Z,100486.50
2022-08-05T15:57:17.871Z,100487.28
2022-08-05T16:00:26.137Z,100486.50
2022-08-05T16:03:48.565Z,100482.94
2022-08-05T16:06:56.011Z,100483.28
2022-08-05T16:09:58.501Z,100479.00
2022-08-05T16:13:01.055Z,100480.22
2022-08-05T16:16:04.499Z,100479.69
2022-08-05T16:19:07.597Z,100478.88
2022-08-05T16:22:15.364Z,100466.03
2022-08-05T16:25:18.862Z,100481.16
2022-08-05T16:28:21.080Z,100475.03
2022-08-05T16:31:26.806Z,100473.94
2022-08-05T16:34:50.914Z,100469.69
2022-08-05T16:38:02.516Z,100471.06
2022-08-05T16:42:15.413Z,100468.22
2022-08-05T16:44:39.097Z,100466.25
2022-08-05T16:47:53.523Z,100469.47
2022-08-05T16:50:59.946Z,100465.78
2022-08-05T16:54:15.920Z,100470.34
2022-08-05T16:57:30.146Z,100470.81
2022-08-05T17:00:46.855Z,100463.09
2022-08-05T17:03:52.117Z,100461.78
2022-08-05T17:06:55.830Z,100469.34
2022-08-05T17:10:03.574Z,100467.66
2022-08-05T17:13:05.886Z,100465.00
2022-08-05T17:16:32.535Z,100458.16
2022-08-05T17:19:36.065Z,100467.75
2022-08-05T17:22:38.797Z,100466.16
2022-08-05T17:25:41.786Z,100466.03
2022-08-05T17:28:44.856Z,100471.03
2022-08-05T17:31:56.836Z,100481.84
2022-08-05T17:35:00.607Z,100483.34
2022-08-05T17:38:07.685Z,100477.28
2022-08-05T17:41:22.931Z,100471.81
2022-08-05T17:44:32.902Z,100481.38
2022-08-05T17:47:35.402Z,100475.47
2022-08-05T17:50:38.721Z,100474.44
2022-08-05T17:53:42.388Z,100475.16
2022-08-05T17:56:44.877Z,100478.16
2022-08-05T18:00:05.623Z,100488.84
2022-08-05T18:03:08.382Z,100484.13
2022-08-05T18:06:15.140Z,100473.84
2022-08-05T18:09:17.808Z,100476.72
2022-08-05T18:12:22.145Z,100475.78
2022-08-05T18:15:27.736Z,100471.66
2022-08-05T18:18:34.021Z,100468.38
2022-08-05T18:22:08.891Z,100474.28
2022-08-05T18:25:05.783Z,100470.56
2022-08-05T18:28:09.297Z,100463.72
2022-08-05T18:31:12.082Z,100459.81
2022-08-05T18:34:18.007Z,100466.81
2022-08-05T18:37:34.309Z,100473.69
2022-08-05T18:42:00.312Z,100474.47
2022-08-05T18:44:06.296Z,100476.84
2022-08-05T18:47:10.440Z,100478.94
2022-08-05T18:50:44.934Z,100481.31
2022-08-05T18:53:50.365Z,100486.72
2022-08-05T18:56:53.106Z,100478.84
2022-08-05T19:00:02.954Z,100480.16
2022-08-05T19:03:08.120Z,100484.28
2022-08-05T19:06:18.963Z,100488.44
2022-08-05T19:09:24.706Z,100490.28
2022-08-05T19:12:29.534Z,100489.53
2022-08-05T19:15:59.270Z,100494.50
2022-08-05T19:18:56.433Z,100491.69
2022-08-05T19:21:59.532Z,100495.44
2022-08-05T19:25:03.026Z,100488.53
2022-08-05T19:28:05.544Z,100494.09
2022-08-05T19:31:08.025Z,100496.84
2022-08-05T19:34:10.372Z,100492.44
2022-08-05T19:37:12.647Z,100493.31
2022-08-05T19:40:15.598Z,100491.63
2022-08-05T19:43:31.217Z,100491.16
2022-08-05T19:50:25.956Z,100494.81
2022-08-05T19:54:03.600Z,100497.22
2022-08-05T19:56:55.275Z,100499.47
2022-08-05T20:00:02.484Z,100489.28
2022-08-05T20:03:13.749Z,100494.47
2022-08-05T20:06:28.542Z,100493.41
2022-08-05T20:09:54.645Z,100488.66
2022-08-05T20:12:55.211Z,100489.06
2022-08-05T20:15:58.399Z,100492.97
2022-08-05T20:19:03.410Z,100497.34
2022-08-05T20:22:05.952Z,100488.22
2022-08-05T20:25:12.176Z,100484.94
2022-08-05T20:28:14.780Z,100480.69
2022-08-05T20:31:21.711Z,100484.16
2022-08-05T20:34:30.877Z,100485.13
2022-08-05T20:38:05.659Z,100482.19
2022-08-05T20:40:56.426Z,100468.28
2022-08-05T20:44:06.074Z,100494.41
2022-08-05T20:47:21.247Z,100489.34
2022-08-05T20:50:40.867Z,100489.75
2022-08-05T20:53:56.343Z,100489.06
2022-08-05T20:56:59.763Z,100486.72
2022-08-05T21:00:19.846Z,100490.66
2022-08-05T21:03:34.151Z,100481.84
2022-08-05T21:06:37.679Z,100484.25
2022-08-05T21:09:53.257Z,100484.44
2022-08-05T21:13:08.742Z,100486.75
2022-08-05T21:16:13.677Z,100495.97
2022-08-05T21:19:17.384Z,100494.59
2022-08-05T21:22:23.838Z,100499.16
2022-08-05T21:25:26.184Z,100505.66
2022-08-05T21:28:36.606Z,100504.06
2022-08-05T21:31:41.166Z,100508.72
2022-08-05T21:34:44.729Z,100515.31
2022-08-05T21:38:06.978Z,100510.41
2022-08-05T21:41:12.031Z,100517.84
2022-08-05T21:44:14.229Z,100511.91
2022-08-05T21:47:55.714Z,100512.44
2022-08-05T21:50:41.071Z,100507.19
2022-08-05T21:53:43.540Z,100505.78
2022-08-05T22:00:24.676Z,100502.16
2022-08-05T22:03:51.922Z,100505.84
2022-08-05T22:06:50.511Z,100507.56
2022-08-05T22:09:52.750Z,100508.47
2022-08-05T22:13:09.173Z,100502.34
2022-08-05T22:16:42.165Z,100512.72
2022-08-05T22:20:02.226Z,100506.53
2022-08-05T22:24:02.701Z,100505.84
2022-08-05T22:27:07.069Z,100499.78
2022-08-05T22:30:14.727Z,100503.34
2022-08-05T22:33:19.792Z,100496.34
2022-08-05T22:36:41.918Z,100499.34
2022-08-05T22:39:45.533Z,100503.88
2022-08-05T22:42:53.104Z,100501.34
2022-08-05T22:46:02.520Z,100498.03
2022-08-05T22:49:23.089Z,100500.88
2022-08-05T22:52:34.487Z,100500.97
2022-08-05T22:55:57.360Z,100495.63
2022-08-05T22:59:03.926Z,100495.91
2022-08-05T23:02:07.898Z,100495.97
2022-08-05T23:05:10.381Z,100488.00
2022-08-05T23:08:12.765Z,100487.38
2022-08-05T23:11:16.627Z,100494.69
2022-08-05T23:14:22.554Z,100492.09
2022-08-05T23:17:35.019Z,100490.56
2022-08-05T23:20:40.262Z,100489.00
2022-08-05T23:23:45.500Z,100492.06
2022-08-05T23:26:47.634Z,100492.06
2022-08-05T23:29:50.669Z,100497.59
2022-08-05T23:32:52.927Z,100499.59
2022-08-05T23:35:56.437Z,100504.19
2022-08-05T23:38:58.859Z,100507.97
2022-08-05T23:42:01.419Z,100509.94
2022-08-05T23:45:05.425Z,100509.16
2022-08-05T23:48:16.864Z,100515.75
2022-08-05T23:51:21.819Z,100516.09
2022-08-05T23:54:30.397Z,100511.06
2022-08-05T23:57:36.803Z,100502.38
